createdAt,value
2018-12-03T00:02:07.443Z,99.90
2018-12-03T00:06:11.753Z,99.90
2018-12-03T00:10:15.982Z,99.90
2018-12-03T00:14:20.370Z,99.90
2018-12-03T00:18:24.646Z,99.90
2018-12-03T00:22:29.054Z,99.90
2018-12-03T00:26:33.313Z,99.90
2018-12-03T00:30:37.501Z,99.90
2018-12-03T00:34:41.794Z,99.90
2018-12-03T00:38:46.016Z,99.90
2018-12-03T00:42:50.537Z,99.90
2018-12-03T00:54:08.311Z,99.90
2018-12-03T00:58:43.070Z,99.90
2018-12-03T01:02:59.578Z,99.90
2018-12-03T01:07:15.961Z,99.90
2018-12-03T01:11:34.315Z,99.90
2018-12-03T01:15:50.852Z,99.90
2018-12-03T01:24:48.112Z,99.90
2018-12-03T01:29:04.869Z,99.90
2018-12-03T01:33:21.946Z,99.90
2018-12-03T01:37:38.438Z,99.90
2018-12-03T01:41:55.799Z,99.90
2018-12-03T01:46:12.519Z,99.90
2018-12-03T01:55:11.444Z,99.90
2018-12-03T02:04:20.832Z,99.90
2018-12-03T02:08:45.641Z,99.90
2018-12-03T02:18:13.004Z,99.90
2018-12-03T02:22:54.896Z,99.90
2018-12-03T02:32:07.631Z,99.90
2018-12-03T02:36:31.928Z,99.90
2018-12-03T02:45:28.052Z,99.90
2018-12-03T02:49:52.348Z,99.90
2018-12-03T02:54:16.757Z,99.90
2018-12-03T02:58:41.092Z,99.90
2018-12-03T03:03:03.933Z,99.90
2018-12-03T03:07:28.215Z,99.90
2018-12-03T03:11:52.593Z,99.90
2018-12-03T03:16:15.400Z,99.90
2018-12-03T03:20:39.903Z,99.90
2018-12-03T03:25:04.784Z,99.90
2018-12-03T03:29:29.481Z,99.90
2018-12-03T03:38:16.598Z,99.90
2018-12-03T03:42:51.570Z,99.90
2018-12-03T03:47:27.033Z,99.90
2018-12-03T03:51:44.509Z,99.90
2018-12-03T04:05:24.280Z,99.90
2018-12-03T04:09:40.879Z,99.90
2018-12-03T04:18:25.737Z,99.90
2018-12-03T04:27:25.027Z,99.90
2018-12-03T04:31:41.473Z,99.90
2018-12-03T04:40:55.321Z,99.90
2018-12-03T04:54:36.378Z,99.90
2018-12-03T04:58:52.873Z,99.90
2018-12-03T05:03:28.715Z,99.90
2018-12-03T05:12:29.550Z,99.90
2018-12-03T05:17:05.970Z,99.90
2018-12-03T05:21:41.374Z,99.90
2018-12-03T05:25:58.401Z,99.90
2018-12-03T05:30:15.494Z,99.90
2018-12-03T05:38:52.721Z,99.90
2018-12-03T05:43:09.684Z,99.90
2018-12-03T05:47:26.833Z,99.90
2018-12-03T05:51:43.718Z,99.90
2018-12-03T06:00:18.842Z,99.90
2018-12-03T06:04:35.996Z,99.90
2018-12-03T06:08:52.990Z,99.90
2018-12-03T06:13:09.459Z,99.90
2018-12-03T06:26:33.913Z,99.90
2018-12-03T06:30:50.147Z,99.90
2018-12-03T06:35:06.662Z,99.90
2018-12-03T06:39:23.740Z,99.90
2018-12-03T06:43:40.116Z,99.90
2018-12-03T06:47:57.225Z,99.90
2018-12-03T06:52:13.547Z,99.90
2018-12-03T07:01:07.832Z,99.90
2018-12-03T07:05:24.472Z,99.90
2018-12-03T07:14:22.822Z,99.90
2018-12-03T07:18:58.620Z,99.90
2018-12-03T07:23:33.269Z,99.90
2018-12-03T07:27:49.799Z,99.90
2018-12-03T07:36:24.883Z,99.90
2018-12-03T07:40:41.322Z,99.90
2018-12-03T07:44:57.556Z,99.90
2018-12-03T07:58:15.761Z,99.90
2018-12-03T08:02:32.356Z,99.90
2018-12-03T08:06:48.919Z,99.90
2018-12-03T08:11:05.509Z,99.90
2018-12-03T08:15:22.095Z,99.90
2018-12-03T08:19:57.307Z,99.90
2018-12-03T08:24:14.310Z,99.90
2018-12-03T08:28:31.360Z,99.90
2018-12-03T08:32:48.242Z,99.90
2018-12-03T08:51:12.799Z,99.90
2018-12-03T08:55:29.171Z,99.90
2018-12-03T08:59:45.529Z,99.90
2018-12-03T09:04:02.257Z,99.90
2018-12-03T09:08:19.575Z,99.90
2018-12-03T09:16:54.524Z,99.90
2018-12-03T09:21:11.546Z,99.90
2018-12-03T09:25:29.294Z,99.90
2018-12-03T09:29:45.723Z,99.30
2018-12-03T09:34:02.759Z,99.60
2018-12-03T09:38:21.674Z,99.90
2018-12-03T09:55:51.067Z,98.20
2018-12-03T10:00:09.729Z,97.10
2018-12-03T10:04:26.414Z,98.20
2018-12-03T10:08:43.017Z,98.20
2018-12-03T10:12:59.447Z,98.30
2018-12-03T10:22:01.905Z,97.60
2018-12-03T10:26:18.956Z,97.60
2018-12-03T10:30:35.551Z,95.50
2018-12-03T10:34:52.374Z,94.30
2018-12-03T10:39:09.281Z,92.90
2018-12-03T10:43:25.463Z,90.70
2018-12-03T10:47:42.447Z,90.20
2018-12-03T10:51:59.543Z,88.90
2018-12-03T10:56:17.324Z,89.00
2018-12-03T11:00:52.303Z,83.30
2018-12-03T11:05:27.359Z,75.70
2018-12-03T11:09:44.006Z,68.70
2018-12-03T11:14:00.536Z,61.20
2018-12-03T11:18:17.236Z,59.90
2018-12-03T11:22:33.823Z,57.10
2018-12-03T11:26:50.061Z,60.60
2018-12-03T11:31:06.716Z,63.20
2018-12-03T11:35:23.723Z,68.80
2018-12-03T11:39:59.760Z,70.70
2018-12-03T11:44:16.476Z,73.60
2018-12-03T11:48:33.700Z,76.20
2018-12-03T11:52:50.457Z,76.10
2018-12-03T11:57:06.761Z,79.40
2018-12-03T12:01:23.152Z,80.20
2018-12-03T12:05:39.564Z,83.00
2018-12-03T12:14:36.265Z,82.60
2018-12-03T12:18:52.961Z,83.90
2018-12-03T12:23:09.112Z,84.00
2018-12-03T12:27:25.683Z,75.60
2018-12-03T12:31:42.029Z,66.40
2018-12-03T12:35:59.013Z,65.10
2018-12-03T12:40:15.386Z,68.70
2018-12-03T12:44:50.075Z,69.60
2018-12-03T12:49:06.481Z,70.40
2018-12-03T12:57:41.260Z,69.10
2018-12-03T13:01:57.472Z,68.50
2018-12-03T13:06:14.589Z,70.10
2018-12-03T13:10:31.173Z,65.00
2018-12-03T13:14:48.093Z,68.50
2018-12-03T13:19:04.320Z,74.10
2018-12-03T13:23:21.677Z,77.50
2018-12-03T13:27:38.821Z,80.20
2018-12-03T13:31:58.312Z,83.00
2018-12-03T13:36:14.632Z,85.70
2018-12-03T13:40:31.393Z,88.20
2018-12-03T13:44:48.110Z,90.00
2018-12-03T13:49:04.272Z,90.40
2018-12-03T13:53:20.909Z,90.60
2018-12-03T13:57:37.680Z,91.20
2018-12-03T14:01:54.616Z,91.60
2018-12-03T14:06:11.001Z,92.80
2018-12-03T14:10:27.569Z,93.30
2018-12-03T14:14:44.516Z,94.10
2018-12-03T14:19:01.205Z,94.90
2018-12-03T14:23:17.794Z,95.40
2018-12-03T14:27:34.755Z,96.00
2018-12-03T14:31:51.256Z,96.40
2018-12-03T14:36:08.092Z,96.70
2018-12-03T14:40:24.467Z,97.70
2018-12-03T14:44:41.581Z,98.20
2018-12-03T14:48:58.239Z,99.70
2018-12-03T14:53:15.168Z,99.90
2018-12-03T15:02:15.155Z,99.90
2018-12-03T15:06:31.645Z,99.90
2018-12-03T15:10:49.091Z,99.90
2018-12-03T15:19:48.163Z,99.90
2018-12-03T15:28:47.250Z,99.90
2018-12-03T15:33:03.807Z,99.90
2018-12-03T15:37:38.785Z,99.90
2018-12-03T15:41:55.569Z,99.90
2018-12-03T15:55:33.282Z,99.90
2018-12-03T16:00:08.481Z,99.90
2018-12-03T16:04:24.819Z,99.90
2018-12-03T16:18:10.145Z,99.90
2018-12-03T16:35:52.851Z,99.90
2018-12-03T16:45:07.398Z,99.90
2018-12-03T16:49:24.502Z,99.90
2018-12-03T16:53:42.110Z,99.90
2018-12-03T16:57:58.373Z,99.90
2018-12-03T17:02:14.779Z,99.90
2018-12-03T17:06:31.683Z,99.90
2018-12-03T17:20:26.436Z,99.90
2018-12-03T17:24:42.891Z,99.90
2018-12-03T17:38:22.144Z,99.90
2018-12-03T17:42:57.082Z,99.90
2018-12-03T17:47:32.398Z,99.90
2018-12-03T17:56:35.867Z,99.90
2018-12-03T18:01:10.560Z,99.90
2018-12-03T18:05:45.440Z,99.90
2018-12-03T18:10:04.497Z,99.90
2018-12-03T18:14:20.628Z,99.90
2018-12-03T18:18:37.694Z,99.90
2018-12-03T18:32:18.124Z,99.90
2018-12-03T18:36:36.886Z,99.90
2018-12-03T19:04:10.602Z,99.90
2018-12-03T19:08:28.128Z,99.90
2018-12-03T19:12:43.946Z,99.90
2018-12-03T19:17:00.418Z,99.90
2018-12-03T19:26:10.573Z,99.90
2018-12-03T19:30:27.775Z,99.90
2018-12-03T19:49:08.086Z,99.90
2018-12-03T19:53:24.610Z,99.90
2018-12-03T20:02:24.339Z,99.90
2018-12-03T20:06:59.344Z,99.90
2018-12-03T20:11:33.942Z,99.90
2018-12-03T20:15:51.553Z,99.90
2018-12-03T20:20:08.083Z,99.90
2018-12-03T20:24:42.885Z,99.90
2018-12-03T20:33:39.148Z,99.90
2018-12-03T20:37:55.797Z,99.90
2018-12-03T20:42:12.400Z,99.90
2018-12-03T21:00:34.375Z,99.90
2018-12-03T21:09:43.625Z,99.90
2018-12-03T21:14:00.333Z,99.90
2018-12-03T21:23:15.815Z,99.90
2018-12-03T21:27:21.576Z,99.90
2018-12-03T21:31:27.218Z,99.90
2018-12-03T21:35:33.104Z,99.90
2018-12-03T21:39:38.679Z,99.90
2018-12-03T21:43:44.364Z,99.90
2018-12-03T21:47:50.250Z,99.90
2018-12-03T21:51:55.956Z,99.90
2018-12-03T21:56:01.623Z,99.90
2018-12-03T22:00:10.824Z,99.90
2018-12-03T22:04:16.457Z,99.90
2018-12-03T22:08:21.996Z,99.90
2018-12-03T22:12:27.964Z,99.90
2018-12-03T22:16:33.548Z,99.90
2018-12-03T22:20:39.231Z,99.90
2018-12-03T22:24:44.849Z,99.90
2018-12-03T22:28:50.680Z,99.90
2018-12-03T22:32:56.308Z,99.90
2018-12-03T22:37:01.960Z,99.90
2018-12-03T22:41:07.665Z,99.90
2018-12-03T22:45:13.252Z,99.90
2018-12-03T22:49:18.809Z,99.90
2018-12-03T22:53:24.917Z,99.90
2018-12-03T22:57:30.504Z,99.90
2018-12-03T23:01:36.218Z,99.90
2018-12-03T23:05:41.812Z,99.90
2018-12-03T23:09:47.380Z,99.90
2018-12-03T23:13:52.973Z,99.90
2018-12-03T23:17:58.552Z,99.90
2018-12-03T23:22:04.199Z,99.90
2018-12-03T23:26:09.953Z,99.90
2018-12-03T23:30:15.726Z,99.90
2018-12-03T23:34:21.423Z,99.90
2018-12-03T23:38:27.293Z,99.90
2018-12-03T23:42:33.111Z,99.90
2018-12-03T23:46:38.773Z,99.90
2018-12-03T23:50:44.367Z,99.90
2018-12-03T23:54:50.029Z,99.90
2018-12-03T23:58:55.700Z,99.90
